NY90 weather

Medina Memorial Hospital Heliport
Medina, New York, United States

Public forecast

Using degrees Fahrenheit for public forecast. Weather courtesy of forecast.io.

Closest aviation weather report (METAR) to Medina Memorial Hospital Heliport

Closest report is Buffalo Niagara International Airport, 22.4 nm (41.5 km) SW. Retrieved 2019/12/11 01:54 UTC (42 minutes ago):

KBUF 110154Z 30009KT 10SM FEW029 SCT039 OVC060 M02/M09 A3015 RMK AO2 SNE05 SLP217 P0000 T10221089

Closest aviation forecast (TAF) to Medina Memorial Hospital Heliport

Closest forecast is Buffalo Niagara International Airport, 22.4 nm (41.5 km) SW. Retrieved 2019-12-11 00:40 UTC (2 hours ago):

TAF KBUF 102337Z 1100/1124 28014KT P6SM -SHSN OVC040 FM110400 27006KT P6SM BKN040 FM111200 25014G22KT 1/2SM SN OVC010 FM111400 23020G30KT 2SM -SHSN BLSN OVC015 FM111600 25025G35KT 1/2SM SN OVC010 FM111800 27020G30KT 5SM BLSN VCSH BKN025 FM112000 28018G26KT P6SM BKN040